createdAt,value
2022-11-12T00:03:03.474Z,974.93
2022-11-12T00:08:35.235Z,974.91
2022-11-12T00:14:06.849Z,974.91
2022-11-12T00:19:38.243Z,974.89
2022-11-12T00:25:09.684Z,974.89
2022-11-12T00:30:41.450Z,974.91
2022-11-12T00:41:42.823Z,974.87
2022-11-12T00:47:14.477Z,974.87
2022-11-12T00:52:46.422Z,974.85
2022-11-12T00:58:18.122Z,974.85
2022-11-12T01:03:49.872Z,974.85
2022-11-12T01:09:21.616Z,974.83
2022-11-12T01:14:53.067Z,974.83
2022-11-12T01:20:24.915Z,974.81
2022-11-12T01:25:56.726Z,974.75
2022-11-12T01:31:28.290Z,974.71
2022-11-12T01:37:00.047Z,974.68
2022-11-12T01:42:31.799Z,974.68
2022-11-12T01:48:03.540Z,974.62
2022-11-12T01:53:35.644Z,974.56
2022-11-12T01:59:07.708Z,974.58
2022-11-12T02:04:39.317Z,974.56
2022-11-12T02:10:11.287Z,974.44
2022-11-12T02:15:43.014Z,974.36
2022-11-12T02:21:14.819Z,974.36
2022-11-12T02:26:46.192Z,974.30
2022-11-12T02:32:17.815Z,974.26
2022-11-12T02:37:49.511Z,974.26
2022-11-12T02:43:21.288Z,974.24
2022-11-12T02:48:53.442Z,974.22
2022-11-12T02:54:25.561Z,974.18
2022-11-12T02:59:57.199Z,974.16
2022-11-12T03:05:28.825Z,974.14
2022-11-12T03:11:00.654Z,974.18
2022-11-12T03:16:32.552Z,974.20
2022-11-12T03:22:04.819Z,974.24
2022-11-12T03:27:36.721Z,974.28
2022-11-12T03:33:08.495Z,974.28
2022-11-12T03:38:40.382Z,974.28
2022-11-12T03:44:12.021Z,974.32
2022-11-12T03:49:43.830Z,974.34
2022-11-12T03:55:15.557Z,974.38
2022-11-12T04:00:47.412Z,974.40
2022-11-12T04:06:19.114Z,974.40
2022-11-12T04:11:51.019Z,974.38
2022-11-12T04:17:22.798Z,974.38
2022-11-12T04:22:54.498Z,974.44
2022-11-12T04:25:18.327Z,974.56
2022-11-12T04:30:50.080Z,974.56
2022-11-12T04:36:21.429Z,974.54
2022-11-12T04:41:53.146Z,974.56
2022-11-12T04:47:24.672Z,974.56
2022-11-12T04:52:56.189Z,974.54
2022-11-12T04:58:27.796Z,974.46
2022-11-12T05:03:59.551Z,974.56
2022-11-12T05:09:31.344Z,974.56
2022-11-12T05:15:03.142Z,974.56
2022-11-12T05:20:34.682Z,974.58
2022-11-12T05:26:06.250Z,974.56
2022-11-12T05:31:37.896Z,974.54
2022-11-12T05:37:09.797Z,974.54
2022-11-12T05:42:41.543Z,974.46
2022-11-12T05:48:13.185Z,974.44
2022-11-12T05:53:44.922Z,974.54
2022-11-12T05:59:16.598Z,974.58
2022-11-12T06:04:48.366Z,974.60
2022-11-12T06:10:20.763Z,974.64
2022-11-12T06:15:51.926Z,974.69
2022-11-12T06:21:23.683Z,974.71
2022-11-12T06:26:55.506Z,974.73
2022-11-12T06:32:27.330Z,974.73
2022-11-12T06:40:19.688Z,974.81
2022-11-12T06:45:50.395Z,974.81
2022-11-12T06:51:21.600Z,974.83
2022-11-12T06:56:53.501Z,974.85
2022-11-12T07:02:25.330Z,974.85
2022-11-12T07:07:57.303Z,974.87
2022-11-12T07:13:29.127Z,974.89
2022-11-12T07:19:00.733Z,974.87
2022-11-12T07:24:32.630Z,974.91
2022-11-12T07:30:04.464Z,974.91
2022-11-12T07:35:36.401Z,974.93
2022-11-12T07:41:07.927Z,974.93
2022-11-12T07:46:39.691Z,974.93
2022-11-12T07:52:11.215Z,974.93
2022-11-12T07:57:43.218Z,974.93
2022-11-12T08:03:14.837Z,974.93
2022-11-12T08:08:46.671Z,974.89
2022-11-12T08:14:18.643Z,974.87
2022-11-12T08:19:50.280Z,974.89
2022-11-12T08:25:22.157Z,974.89
2022-11-12T08:30:53.924Z,974.95
2022-11-12T08:36:25.817Z,974.95
2022-11-12T08:41:57.529Z,974.97
2022-11-12T08:47:29.353Z,974.99
2022-11-12T08:53:01.158Z,975.03
2022-11-12T08:58:33.100Z,975.01
2022-11-12T09:04:04.940Z,975.03
2022-11-12T09:09:36.822Z,975.03
2022-11-12T09:15:36.993Z,975.03
2022-11-12T09:20:39.911Z,975.05
2022-11-12T09:26:12.069Z,975.03
2022-11-12T09:31:43.510Z,975.05
2022-11-12T09:37:15.541Z,975.11
2022-11-12T09:42:47.573Z,975.11
2022-11-12T09:48:19.697Z,975.09
2022-11-12T09:53:51.502Z,975.13
2022-11-12T09:59:23.339Z,975.09
2022-11-12T10:04:55.343Z,975.11
2022-11-12T10:10:27.179Z,975.09
2022-11-12T10:15:59.154Z,975.07
2022-11-12T10:21:30.956Z,975.03
2022-11-12T10:27:02.661Z,975.01
2022-11-12T10:32:34.488Z,974.97
2022-11-12T10:38:06.221Z,974.91
2022-11-12T10:43:43.729Z,974.85
2022-11-12T10:49:15.588Z,974.73
2022-11-12T10:54:52.395Z,974.68
2022-11-12T11:00:19.115Z,974.60
2022-11-12T11:05:51.095Z,974.58
2022-11-12T11:11:22.638Z,974.56
2022-11-12T11:16:54.650Z,974.44
2022-11-12T11:24:46.895Z,974.24
2022-11-12T11:30:17.810Z,974.22
2022-11-12T11:35:49.526Z,974.22
2022-11-12T11:41:21.313Z,974.22
2022-11-12T11:46:53.104Z,974.18
2022-11-12T11:52:24.901Z,974.16
2022-11-12T12:03:30.408Z,974.04
2022-11-12T12:08:58.224Z,974.00
2022-11-12T12:14:29.929Z,973.95
2022-11-12T12:20:01.715Z,973.97
2022-11-12T12:33:22.771Z,973.83
2022-11-12T12:38:54.736Z,973.81
2022-11-12T12:44:26.490Z,973.83
2022-11-12T12:49:58.449Z,973.77
2022-11-12T12:55:29.995Z,973.69
2022-11-12T13:01:01.898Z,973.59
2022-11-12T13:06:33.712Z,973.53
2022-11-12T13:12:05.599Z,973.48
2022-11-12T13:17:37.666Z,973.40
2022-11-12T13:23:09.463Z,973.36
2022-11-12T13:28:40.843Z,973.34
2022-11-12T13:34:12.950Z,973.30
2022-11-12T13:39:44.682Z,973.28
2022-11-12T13:45:16.362Z,973.28
2022-11-12T13:50:48.279Z,973.26
2022-11-12T13:56:20.392Z,973.26
2022-11-12T14:01:52.300Z,973.22
2022-11-12T14:07:24.317Z,973.18
2022-11-12T14:12:56.283Z,973.12
2022-11-12T14:18:28.464Z,973.08
2022-11-12T14:23:59.739Z,973.01
2022-11-12T14:29:35.275Z,972.93
2022-11-12T14:35:03.194Z,972.87
2022-11-12T14:40:34.931Z,972.83
2022-11-12T14:46:06.815Z,972.79
2022-11-12T14:51:38.533Z,972.73
2022-11-12T14:57:10.400Z,972.75
2022-11-12T15:02:55.679Z,972.71
2022-11-12T15:08:13.791Z,972.69
2022-11-12T15:13:45.691Z,972.65
2022-11-12T15:19:17.474Z,972.59
2022-11-12T15:24:49.197Z,972.54
2022-11-12T15:30:20.623Z,972.52
2022-11-12T15:35:52.547Z,972.52
2022-11-12T15:41:24.773Z,972.50
2022-11-12T15:46:56.657Z,972.52
2022-11-12T15:52:28.314Z,972.52
2022-11-12T15:58:00.257Z,972.54
2022-11-12T16:03:31.879Z,972.52
2022-11-12T16:09:03.730Z,972.50
2022-11-12T16:14:35.811Z,972.50
2022-11-12T16:20:07.435Z,972.44
2022-11-12T16:25:38.902Z,972.40
2022-11-12T16:31:11.056Z,972.38
2022-11-12T16:36:42.788Z,972.38
2022-11-12T16:47:44.094Z,972.38
2022-11-12T16:53:15.638Z,972.38
2022-11-12T16:58:47.074Z,972.38
2022-11-12T17:04:19.098Z,972.36
2022-11-12T17:09:51.020Z,972.38
2022-11-12T17:20:51.976Z,972.36
2022-11-12T17:26:23.943Z,972.36
2022-11-12T17:31:55.872Z,972.28
2022-11-12T17:37:27.719Z,972.30
2022-11-12T17:42:59.550Z,972.30
2022-11-12T17:48:31.462Z,972.28
2022-11-12T17:54:03.154Z,972.24
2022-11-12T17:59:34.937Z,972.18
2022-11-12T18:05:06.839Z,972.16
2022-11-12T18:10:38.551Z,972.12
2022-11-12T18:16:14.452Z,972.05
2022-11-12T18:21:42.265Z,972.01
2022-11-12T18:27:14.170Z,971.97
2022-11-12T18:32:45.977Z,971.97
2022-11-12T18:38:17.587Z,971.97
2022-11-12T18:43:49.342Z,971.89
2022-11-12T18:49:21.531Z,971.97
2022-11-12T18:54:53.780Z,971.89
2022-11-12T19:00:25.491Z,971.85
2022-11-12T19:05:57.080Z,971.81
2022-11-12T19:11:28.967Z,971.73
2022-11-12T19:17:00.845Z,971.67
2022-11-12T19:22:32.736Z,971.65
2022-11-12T19:33:33.949Z,971.59
2022-11-12T19:39:06.120Z,971.57
2022-11-12T19:44:38.180Z,971.51
2022-11-12T19:55:40.041Z,971.38
2022-11-12T20:01:11.353Z,971.34
2022-11-12T20:06:42.878Z,971.28
2022-11-12T20:12:14.978Z,971.26
2022-11-12T20:17:46.907Z,971.24
2022-11-12T20:23:18.554Z,971.26
2022-11-12T20:28:50.337Z,971.22
2022-11-12T20:34:22.053Z,971.24
2022-11-12T20:39:53.974Z,971.22
2022-11-12T20:45:25.775Z,971.16
2022-11-12T20:51:22.104Z,971.10
2022-11-12T20:56:29.484Z,971.04
2022-11-12T21:02:01.179Z,971.00
2022-11-12T21:07:32.983Z,970.95
2022-11-12T21:13:05.113Z,970.91
2022-11-12T21:18:36.710Z,970.85
2022-11-12T21:24:08.712Z,970.81
2022-11-12T21:29:40.493Z,970.79
2022-11-12T21:35:12.569Z,970.77
2022-11-12T21:37:35.892Z,970.71
2022-11-12T21:43:07.659Z,970.69
2022-11-12T21:48:39.640Z,970.67
2022-11-12T21:54:11.197Z,970.63
2022-11-12T21:59:42.966Z,970.59
2022-11-12T22:05:15.074Z,970.53
2022-11-12T22:10:46.559Z,970.53
2022-11-12T22:16:18.475Z,970.49
2022-11-12T22:21:50.057Z,970.49
2022-11-12T22:27:21.701Z,970.46
2022-11-12T22:32:53.510Z,970.46
2022-11-12T22:38:25.375Z,970.44
2022-11-12T22:43:56.878Z,970.38
2022-11-12T22:49:28.449Z,970.36
2022-11-12T22:55:00.388Z,970.34
2022-11-12T23:00:32.193Z,970.26
2022-11-12T23:06:04.107Z,970.22
2022-11-12T23:11:35.704Z,970.16
2022-11-12T23:17:07.511Z,970.12
2022-11-12T23:22:39.266Z,970.10
2022-11-12T23:28:10.859Z,970.08
2022-11-12T23:33:42.908Z,970.02
2022-11-12T23:39:14.556Z,969.97
2022-11-12T23:44:46.255Z,969.97
2022-11-12T23:50:18.014Z,969.89
2022-11-12T23:55:49.822Z,969.81
